createdAt,value
2019-02-07T00:00:47.643Z,15.97
2019-02-07T00:09:32.831Z,13.30
2019-02-07T00:15:18.209Z,14.27
2019-02-07T00:21:26.087Z,17.27
2019-02-07T00:24:26.547Z,15.63
2019-02-07T00:30:11.422Z,15.40
2019-02-07T00:33:12.681Z,14.80
2019-02-07T00:36:13.143Z,13.87
2019-02-07T00:39:33.846Z,15.30
2019-02-07T00:48:43.632Z,14.43
2019-02-07T00:51:49.323Z,15.87
2019-02-07T00:54:50.670Z,14.33
2019-02-07T01:03:41.953Z,15.97
2019-02-07T01:06:42.699Z,14.77
2019-02-07T01:12:28.277Z,14.07
2019-02-07T01:15:29.802Z,15.73
2019-02-07T01:21:16.658Z,12.87
2019-02-07T01:24:17.168Z,14.73
2019-02-07T01:27:18.308Z,15.57
2019-02-07T01:33:23.645Z,15.17
2019-02-07T01:36:24.209Z,14.17
2019-02-07T01:39:25.460Z,15.00
2019-02-07T01:42:26.008Z,13.50
2019-02-07T01:45:27.301Z,14.40
2019-02-07T01:48:26.828Z,13.83
2019-02-07T01:57:40.267Z,14.67
2019-02-07T02:03:25.284Z,13.07
2019-02-07T02:09:10.570Z,13.93
2019-02-07T02:14:51.054Z,14.30
2019-02-07T02:17:51.535Z,12.80
2019-02-07T02:23:38.967Z,13.23
2019-02-07T02:29:24.731Z,13.33
2019-02-07T02:32:45.137Z,12.90
2019-02-07T02:35:46.355Z,12.47
2019-02-07T02:42:17.482Z,13.40
2019-02-07T02:45:16.667Z,13.10
2019-02-07T02:51:23.193Z,13.77
2019-02-07T02:54:23.830Z,13.13
2019-02-07T03:03:20.512Z,13.37
2019-02-07T03:09:44.007Z,12.77
2019-02-07T03:12:44.307Z,13.27
2019-02-07T03:15:49.622Z,13.27
2019-02-07T03:21:32.148Z,14.07
2019-02-07T03:24:33.334Z,12.57
2019-02-07T03:30:16.938Z,16.93
2019-02-07T03:36:02.733Z,14.20
2019-02-07T03:41:49.105Z,14.23
2019-02-07T03:44:50.387Z,16.17
2019-02-07T03:50:34.299Z,14.80
2019-02-07T03:53:47.668Z,13.70
2019-02-07T03:57:07.356Z,15.43
2019-02-07T04:02:53.056Z,16.17
2019-02-07T04:05:53.595Z,17.00
2019-02-07T04:11:40.738Z,15.23
2019-02-07T04:17:28.497Z,17.10
2019-02-07T04:23:34.475Z,17.03
2019-02-07T04:26:35.884Z,15.43
2019-02-07T04:32:20.853Z,17.53
2019-02-07T04:38:04.190Z,16.83
2019-02-07T04:41:22.166Z,15.67
2019-02-07T04:44:23.545Z,17.73
2019-02-07T04:47:24.100Z,19.80
2019-02-07T04:53:08.922Z,21.13
2019-02-07T04:58:54.397Z,15.40
2019-02-07T05:01:54.978Z,14.40
2019-02-07T05:08:20.946Z,15.60
2019-02-07T05:14:05.946Z,16.60
2019-02-07T05:20:11.727Z,15.30
2019-02-07T05:23:12.200Z,17.67
2019-02-07T05:29:51.179Z,15.37
2019-02-07T05:35:36.171Z,17.03
2019-02-07T05:41:21.046Z,14.80
2019-02-07T05:44:47.409Z,15.20
2019-02-07T05:50:26.207Z,18.73
2019-02-07T05:59:22.829Z,15.17
2019-02-07T06:02:29.163Z,14.57
2019-02-07T06:11:50.065Z,14.43
2019-02-07T06:17:35.436Z,15.90
2019-02-07T06:23:20.085Z,15.27
2019-02-07T06:26:40.421Z,16.43
2019-02-07T06:33:11.855Z,17.57
2019-02-07T06:36:21.499Z,14.80
2019-02-07T06:42:06.699Z,15.27
2019-02-07T06:47:51.606Z,16.67
2019-02-07T06:53:40.642Z,16.43
2019-02-07T06:56:59.975Z,16.10
2019-02-07T07:02:52.938Z,17.73
2019-02-07T07:11:54.481Z,18.37
2019-02-07T07:14:55.763Z,15.93
2019-02-07T07:21:26.770Z,18.80
2019-02-07T07:24:33.025Z,17.33
2019-02-07T07:31:18.148Z,18.93
2019-02-07T07:34:19.743Z,16.43
2019-02-07T07:43:31.259Z,18.57
2019-02-07T07:49:37.002Z,16.00
2019-02-07T07:55:22.104Z,14.50
2019-02-07T08:04:14.624Z,16.63
2019-02-07T08:13:45.687Z,15.30
2019-02-07T08:16:47.189Z,15.83
2019-02-07T08:23:10.958Z,16.63
2019-02-07T08:26:11.199Z,18.80
2019-02-07T08:29:21.391Z,15.93
2019-02-07T08:36:05.894Z,20.00
2019-02-07T08:42:55.451Z,16.77
2019-02-07T08:49:01.128Z,15.87
2019-02-07T08:52:00.346Z,17.50
2019-02-07T08:55:21.931Z,18.87
2019-02-07T08:58:22.188Z,16.17
2019-02-07T09:04:48.119Z,16.30
2019-02-07T09:08:13.432Z,17.17
2019-02-07T09:17:04.118Z,18.00
2019-02-07T09:23:09.052Z,15.43
2019-02-07T09:28:47.693Z,17.53
2019-02-07T09:34:54.154Z,17.77
2019-02-07T09:38:04.398Z,14.20
2019-02-07T09:43:54.831Z,14.70
2019-02-07T09:52:50.681Z,18.50
2019-02-07T09:55:50.106Z,15.23
2019-02-07T09:58:51.663Z,14.07
2019-02-07T10:02:04.095Z,15.07
2019-02-07T10:05:25.586Z,12.90
2019-02-07T10:11:36.186Z,14.90
2019-02-07T10:14:36.802Z,13.60
2019-02-07T10:20:15.538Z,14.67
2019-02-07T10:29:15.963Z,14.53
2019-02-07T10:35:41.538Z,16.50
2019-02-07T10:44:51.592Z,18.90
2019-02-07T10:47:52.895Z,14.03
2019-02-07T10:50:54.106Z,14.80
2019-02-07T10:56:40.714Z,16.90
2019-02-07T11:03:05.471Z,14.17
2019-02-07T11:08:50.328Z,14.30
2019-02-07T11:15:06.559Z,13.07
2019-02-07T11:18:07.466Z,15.83
2019-02-07T11:21:28.862Z,17.17
2019-02-07T11:30:37.150Z,12.57
2019-02-07T11:33:37.772Z,14.53
2019-02-07T11:42:47.991Z,9.07
2019-02-07T11:48:53.419Z,7.77
2019-02-07T11:54:38.910Z,8.10
2019-02-07T11:57:39.348Z,8.13
2019-02-07T12:00:39.935Z,7.37
2019-02-07T12:03:40.785Z,11.53
2019-02-07T12:09:46.403Z,8.77
2019-02-07T12:16:49.588Z,6.47
2019-02-07T12:19:50.614Z,6.13
2019-02-07T12:23:13.816Z,5.53
2019-02-07T12:26:15.141Z,5.40
2019-02-07T12:29:16.841Z,6.83
2019-02-07T12:32:17.179Z,9.47
2019-02-07T12:35:38.786Z,10.27
2019-02-07T12:41:24.311Z,6.83
2019-02-07T12:47:09.706Z,11.10
2019-02-07T12:52:54.351Z,9.57
2019-02-07T12:55:54.896Z,7.03
2019-02-07T13:01:42.705Z,9.10
2019-02-07T13:07:28.042Z,11.73
2019-02-07T13:13:13.703Z,7.70
2019-02-07T13:16:23.241Z,10.20
2019-02-07T13:22:19.409Z,7.27
2019-02-07T13:28:07.411Z,8.67
2019-02-07T13:37:02.541Z,6.80
2019-02-07T13:40:03.691Z,5.33
2019-02-07T13:49:39.910Z,7.53
2019-02-07T13:53:08.144Z,11.63
2019-02-07T13:58:53.576Z,7.23
2019-02-07T14:04:38.756Z,9.43
2019-02-07T14:10:45.234Z,10.10
2019-02-07T14:13:51.822Z,8.53
2019-02-07T14:17:02.398Z,9.13
2019-02-07T14:20:04.001Z,7.07
2019-02-07T14:26:44.217Z,19.00
2019-02-07T14:29:45.760Z,11.73
2019-02-07T14:35:31.089Z,9.87
2019-02-07T14:38:51.542Z,10.27
2019-02-07T14:42:02.777Z,12.70
2019-02-07T14:45:03.918Z,10.60
2019-02-07T14:50:49.778Z,6.10
2019-02-07T14:56:35.246Z,12.17
2019-02-07T15:02:20.964Z,11.53
2019-02-07T15:05:22.289Z,7.23
2019-02-07T15:08:23.322Z,8.80
2019-02-07T15:11:24.837Z,7.33
2019-02-07T15:17:05.192Z,11.93
2019-02-07T15:23:11.642Z,16.17
2019-02-07T15:28:51.818Z,9.70
2019-02-07T15:31:54.925Z,10.83
2019-02-07T15:37:40.607Z,12.43
2019-02-07T15:43:26.510Z,12.93
2019-02-07T15:49:11.824Z,10.03
2019-02-07T15:52:12.431Z,8.53
2019-02-07T15:55:13.796Z,17.97
2019-02-07T15:58:14.275Z,8.37
2019-02-07T16:04:00.720Z,11.33
2019-02-07T16:07:01.321Z,7.93
2019-02-07T16:10:02.534Z,10.27
2019-02-07T16:13:03.716Z,12.73
2019-02-07T16:18:48.922Z,9.80
2019-02-07T16:21:50.174Z,9.40
2019-02-07T16:24:51.416Z,9.00
2019-02-07T16:30:37.107Z,7.83
2019-02-07T16:36:22.588Z,7.47
2019-02-07T16:39:22.206Z,10.60
2019-02-07T16:45:08.717Z,11.47
2019-02-07T16:51:00.194Z,7.97
2019-02-07T16:56:40.168Z,18.80
2019-02-07T17:05:37.955Z,6.50
2019-02-07T17:08:38.561Z,7.60
2019-02-07T17:11:39.722Z,8.87
2019-02-07T17:17:24.864Z,6.87
2019-02-07T17:20:25.319Z,9.13
2019-02-07T17:23:26.495Z,13.30
2019-02-07T17:26:27.551Z,6.93
2019-02-07T17:29:28.729Z,13.53
2019-02-07T17:32:29.732Z,7.40
2019-02-07T17:38:14.391Z,5.77
2019-02-07T17:43:59.835Z,10.43
2019-02-07T17:47:00.574Z,8.00
2019-02-07T17:53:06.309Z,12.43
2019-02-07T17:58:45.108Z,6.33
2019-02-07T18:11:26.486Z,5.83
2019-02-07T18:14:32.295Z,10.28
2019-02-07T18:20:16.829Z,8.73
2019-02-07T18:23:18.226Z,5.30
2019-02-07T18:29:09.129Z,10.00
2019-02-07T18:32:10.486Z,5.90
2019-02-07T18:35:17.191Z,8.17
2019-02-07T18:38:18.100Z,8.43
2019-02-07T18:44:07.487Z,9.53
2019-02-07T18:49:52.963Z,5.13
2019-02-07T18:52:53.461Z,6.20
2019-02-07T18:59:38.367Z,7.33
2019-02-07T19:08:36.271Z,4.83
2019-02-07T19:18:26.343Z,5.67
2019-02-07T19:21:26.905Z,8.97
2019-02-07T19:24:27.433Z,6.17
2019-02-07T19:27:45.715Z,9.70
2019-02-07T19:33:57.467Z,11.03
2019-02-07T19:36:59.946Z,6.00
2019-02-07T19:40:01.582Z,6.03
2019-02-07T19:49:20.988Z,5.00
2019-02-07T19:52:21.551Z,6.50
2019-02-07T20:01:44.594Z,4.43
2019-02-07T20:07:49.091Z,5.00
2019-02-07T20:13:56.546Z,7.07
2019-02-07T20:16:58.822Z,6.57
2019-02-07T20:22:45.564Z,3.87
2019-02-07T20:25:46.932Z,5.33
2019-02-07T20:31:53.855Z,2.60
2019-02-07T20:38:33.535Z,6.07
2019-02-07T20:44:59.414Z,7.37
2019-02-07T20:51:11.526Z,8.00
2019-02-07T20:57:35.575Z,6.27
2019-02-07T21:03:41.018Z,8.63
2019-02-07T21:10:22.394Z,9.00
2019-02-07T21:13:23.415Z,4.40
2019-02-07T21:19:13.638Z,5.77
2019-02-07T21:22:14.778Z,5.33
2019-02-07T21:25:16.360Z,7.93
2019-02-07T21:32:34.598Z,4.00
2019-02-07T21:35:37.053Z,3.77
2019-02-07T21:41:24.602Z,9.10
2019-02-07T21:44:25.842Z,5.03
2019-02-07T21:50:11.142Z,6.10
2019-02-07T21:55:56.038Z,6.67
2019-02-07T22:01:40.894Z,3.87
2019-02-07T22:04:45.499Z,6.20
2019-02-07T22:10:30.058Z,4.57
2019-02-07T22:16:15.719Z,6.70
2019-02-07T22:22:53.892Z,8.60
2019-02-07T22:25:55.233Z,15.20
2019-02-07T22:29:15.459Z,10.43
2019-02-07T22:35:44.110Z,11.60
2019-02-07T22:41:28.741Z,5.03
2019-02-07T22:47:13.709Z,4.27
2019-02-07T22:53:54.054Z,9.47
2019-02-07T22:56:57.710Z,12.73
2019-02-07T23:02:44.021Z,7.13
2019-02-07T23:08:29.191Z,5.67
2019-02-07T23:11:30.001Z,9.07
2019-02-07T23:21:16.129Z,8.77
2019-02-07T23:24:15.314Z,6.03
2019-02-07T23:27:15.832Z,4.10
2019-02-07T23:37:20.288Z,12.37
2019-02-07T23:43:04.849Z,11.97
2019-02-07T23:51:53.590Z,8.60
2019-02-07T23:54:53.375Z,5.93
2019-02-07T23:57:53.879Z,8.73
